createdAt,value
2022-11-23T00:02:15.931Z,99361.34
2022-11-23T00:04:42.133Z,99359.31
2022-11-23T00:07:08.372Z,99363.19
2022-11-23T00:09:34.628Z,99353.53
2022-11-23T00:12:00.734Z,99354.78
2022-11-23T00:14:26.891Z,99358.69
2022-11-23T00:16:53.051Z,99354.22
2022-11-23T00:19:19.169Z,99346.47
2022-11-23T00:21:45.297Z,99346.84
2022-11-23T00:24:11.430Z,99350.75
2022-11-23T00:26:37.599Z,99347.84
2022-11-23T00:29:03.803Z,99345.00
2022-11-23T00:31:29.975Z,99355.34
2022-11-23T00:33:56.098Z,99353.75
2022-11-23T00:36:22.270Z,99360.53
2022-11-23T00:38:48.423Z,99364.66
2022-11-23T00:41:14.571Z,99358.06
2022-11-23T00:43:40.699Z,99360.78
2022-11-23T00:46:06.870Z,99359.09
2022-11-23T00:48:33.054Z,99366.97
2022-11-23T00:50:59.177Z,99366.28
2022-11-23T00:53:25.374Z,99363.91
2022-11-23T00:55:51.554Z,99374.38
2022-11-23T00:58:17.738Z,99365.03
2022-11-23T01:00:43.869Z,99374.75
2022-11-23T01:03:10.053Z,99371.44
2022-11-23T01:05:36.199Z,99371.88
2022-11-23T01:08:02.312Z,99370.53
2022-11-23T01:10:28.476Z,99370.09
2022-11-23T01:12:54.666Z,99375.47
2022-11-23T01:15:20.817Z,99371.03
2022-11-23T01:17:46.986Z,99370.22
2022-11-23T01:20:13.180Z,99366.59
2022-11-23T01:22:39.330Z,99377.69
2022-11-23T01:25:05.446Z,99382.94
2022-11-23T01:27:31.627Z,99377.78
2022-11-23T01:29:57.752Z,99377.69
2022-11-23T01:32:23.910Z,99381.94
2022-11-23T01:34:50.061Z,99375.91
2022-11-23T01:37:16.227Z,99382.56
2022-11-23T01:39:42.608Z,99377.97
2022-11-23T01:42:08.763Z,99380.56
2022-11-23T01:44:34.970Z,99383.22
2022-11-23T01:47:01.220Z,99386.63
2022-11-23T01:49:27.402Z,99388.25
2022-11-23T01:51:53.562Z,99388.88
2022-11-23T01:54:19.730Z,99386.94
2022-11-23T01:56:45.902Z,99389.97
2022-11-23T01:59:12.073Z,99385.44
2022-11-23T02:01:38.274Z,99379.03
2022-11-23T02:04:04.435Z,99379.63
2022-11-23T02:06:30.575Z,99372.28
2022-11-23T02:08:56.746Z,99374.63
2022-11-23T02:11:22.882Z,99370.75
2022-11-23T02:13:49.040Z,99370.66
2022-11-23T02:16:15.194Z,99368.84
2022-11-23T02:18:41.359Z,99378.31
2022-11-23T02:21:07.541Z,99371.19
2022-11-23T02:23:33.705Z,99372.78
2022-11-23T02:25:59.939Z,99363.34
2022-11-23T02:28:26.071Z,99363.59
2022-11-23T02:30:52.242Z,99367.91
2022-11-23T02:33:18.351Z,99370.63
2022-11-23T02:35:44.517Z,99370.41
2022-11-23T02:38:10.707Z,99372.06
2022-11-23T02:40:36.847Z,99364.53
2022-11-23T02:43:03.019Z,99368.38
2022-11-23T02:45:29.162Z,99362.34
2022-11-23T02:47:55.350Z,99364.78
2022-11-23T02:50:21.519Z,99362.81
2022-11-23T02:52:47.678Z,99364.84
2022-11-23T02:55:13.828Z,99364.78
2022-11-23T02:57:39.973Z,99364.38
2022-11-23T03:00:06.177Z,99369.00
2022-11-23T03:02:32.344Z,99363.81
2022-11-23T03:04:58.502Z,99370.81
2022-11-23T03:07:24.687Z,99364.94
2022-11-23T03:09:50.841Z,99367.59
2022-11-23T03:12:16.987Z,99368.69
2022-11-23T03:14:43.174Z,99359.22
2022-11-23T03:17:09.338Z,99365.50
2022-11-23T03:19:35.697Z,99367.19
2022-11-23T03:22:01.925Z,99362.78
2022-11-23T03:24:28.083Z,99365.50
2022-11-23T03:26:54.280Z,99365.50
2022-11-23T03:29:20.449Z,99367.19
2022-11-23T03:31:46.596Z,99372.44
2022-11-23T03:34:12.748Z,99374.31
2022-11-23T03:36:38.876Z,99375.44
2022-11-23T03:39:05.069Z,99371.19
2022-11-23T03:41:31.264Z,99369.56
2022-11-23T03:43:57.383Z,99367.03
2022-11-23T03:46:23.488Z,99368.81
2022-11-23T03:48:49.654Z,99365.44
2022-11-23T03:51:15.782Z,99363.63
2022-11-23T03:53:41.966Z,99368.81
2022-11-23T03:56:08.146Z,99365.94
2022-11-23T03:58:34.309Z,99362.63
2022-11-23T04:01:00.505Z,99365.94
2022-11-23T04:03:26.737Z,99362.41
2022-11-23T04:05:52.934Z,99359.34
2022-11-23T04:08:19.085Z,99359.13
2022-11-23T04:10:45.271Z,99368.44
2022-11-23T04:13:11.441Z,99368.94
2022-11-23T04:15:37.649Z,99369.63
2022-11-23T04:18:03.820Z,99363.69
2022-11-23T04:20:29.953Z,99362.84
2022-11-23T04:22:56.116Z,99360.25
2022-11-23T04:25:22.264Z,99363.75
2022-11-23T04:27:48.415Z,99366.81
2022-11-23T04:30:14.599Z,99361.41
2022-11-23T04:32:40.721Z,99355.56
2022-11-23T04:35:06.848Z,99354.34
2022-11-23T04:37:33.009Z,99354.97
2022-11-23T04:39:59.183Z,99355.75
2022-11-23T04:42:25.321Z,99357.50
2022-11-23T04:44:51.431Z,99359.03
2022-11-23T04:47:17.612Z,99361.84
2022-11-23T04:49:43.782Z,99356.66
2022-11-23T04:52:09.980Z,99357.56
2022-11-23T04:54:36.146Z,99361.53
2022-11-23T04:57:02.280Z,99362.53
2022-11-23T04:59:28.585Z,99360.69
2022-11-23T05:01:54.863Z,99351.97
2022-11-23T05:04:21.024Z,99355.50
2022-11-23T05:06:47.177Z,99354.69
2022-11-23T05:09:13.351Z,99354.53
2022-11-23T05:11:39.497Z,99352.38
2022-11-23T05:14:05.654Z,99351.25
2022-11-23T05:16:31.823Z,99348.53
2022-11-23T05:18:57.990Z,99353.09
2022-11-23T05:21:24.095Z,99352.25
2022-11-23T05:23:50.211Z,99352.31
2022-11-23T05:26:16.340Z,99350.63
2022-11-23T05:28:42.523Z,99355.91
2022-11-23T05:31:08.714Z,99352.31
2022-11-23T05:33:34.890Z,99348.91
2022-11-23T05:36:01.042Z,99351.09
2022-11-23T05:38:27.249Z,99351.19
2022-11-23T05:40:53.414Z,99347.81
2022-11-23T05:43:19.615Z,99346.31
2022-11-23T05:45:45.778Z,99341.94
2022-11-23T05:48:11.982Z,99347.34
2022-11-23T05:50:38.121Z,99355.41
2022-11-23T05:53:04.232Z,99352.06
2022-11-23T05:55:30.373Z,99357.25
2022-11-23T05:57:56.494Z,99360.06
2022-11-23T06:00:22.609Z,99358.09
2022-11-23T06:02:48.728Z,99365.41
2022-11-23T06:05:14.866Z,99375.03
2022-11-23T06:07:41.079Z,99377.53
2022-11-23T06:10:07.283Z,99369.00
2022-11-23T06:12:33.392Z,99375.16
2022-11-23T06:14:59.561Z,99372.84
2022-11-23T06:17:25.703Z,99378.72
2022-11-23T06:19:51.817Z,99369.84
2022-11-23T06:22:17.931Z,99372.50
2022-11-23T06:24:44.123Z,99375.50
2022-11-23T06:27:13.978Z,99378.63
2022-11-23T06:29:42.888Z,99376.31
2022-11-23T06:32:09.017Z,99377.50
2022-11-23T06:34:35.141Z,99381.94
2022-11-23T06:37:01.276Z,99375.03
2022-11-23T06:39:27.470Z,99377.13
2022-11-23T06:41:57.050Z,99372.47
2022-11-23T06:44:28.947Z,99369.03
2022-11-23T06:46:55.071Z,99369.22
2022-11-23T06:49:21.234Z,99374.28
2022-11-23T06:51:47.358Z,99376.09
2022-11-23T06:54:13.537Z,99371.25
2022-11-23T06:56:39.711Z,99385.50
2022-11-23T06:59:05.916Z,99396.81
2022-11-23T07:01:32.153Z,99397.06
2022-11-23T07:03:58.455Z,99397.75
2022-11-23T07:06:24.606Z,99400.06
2022-11-23T07:08:50.764Z,99402.25
2022-11-23T07:11:16.945Z,99400.06
2022-11-23T07:13:43.079Z,99409.06
2022-11-23T07:16:09.211Z,99402.22
2022-11-23T07:18:35.374Z,99407.41
2022-11-23T07:21:01.528Z,99407.75
2022-11-23T07:23:27.680Z,99404.50
2022-11-23T07:25:53.831Z,99410.59
2022-11-23T07:28:19.986Z,99409.75
2022-11-23T07:30:46.189Z,99415.81
2022-11-23T07:33:12.360Z,99411.09
2022-11-23T07:35:38.513Z,99424.91
2022-11-23T07:38:04.631Z,99423.94
2022-11-23T07:40:30.816Z,99418.63
2022-11-23T07:42:56.995Z,99424.41
2022-11-23T07:45:23.155Z,99428.25
2022-11-23T07:47:49.330Z,99430.72
2022-11-23T07:50:15.481Z,99425.28
2022-11-23T07:52:41.627Z,99431.50
2022-11-23T07:55:07.792Z,99427.94
2022-11-23T07:57:34.059Z,99432.41
2022-11-23T08:00:00.283Z,99425.25
2022-11-23T08:02:28.036Z,99425.31
2022-11-23T08:04:54.240Z,99422.44
2022-11-23T08:07:20.450Z,99421.44
2022-11-23T08:09:46.572Z,99421.13
2022-11-23T08:12:12.706Z,99416.69
2022-11-23T08:14:38.873Z,99420.75
2022-11-23T08:17:05.043Z,99414.19
2022-11-23T08:19:31.184Z,99418.91
2022-11-23T08:21:57.322Z,99416.69
2022-11-23T08:24:23.439Z,99415.38
2022-11-23T08:26:49.638Z,99414.81
2022-11-23T08:29:15.760Z,99409.56
2022-11-23T08:31:41.884Z,99414.84
2022-11-23T08:34:08.017Z,99421.34
2022-11-23T08:36:34.310Z,99406.91
2022-11-23T08:39:02.399Z,99409.91
2022-11-23T08:41:28.549Z,99418.81
2022-11-23T08:43:54.712Z,99408.25
2022-11-23T08:46:20.860Z,99410.78
2022-11-23T08:48:47.050Z,99414.13
2022-11-23T08:51:13.246Z,99414.00
2022-11-23T08:53:39.389Z,99407.53
2022-11-23T08:56:05.589Z,99407.97
2022-11-23T08:58:31.763Z,99404.69
2022-11-23T09:00:57.891Z,99400.09
2022-11-23T09:03:24.040Z,99402.94
2022-11-23T09:05:50.210Z,99398.41
2022-11-23T09:08:16.435Z,99406.09
2022-11-23T09:10:42.552Z,99408.53
2022-11-23T09:13:08.698Z,99399.22
2022-11-23T09:15:34.857Z,99397.13
2022-11-23T09:18:01.016Z,99400.41
2022-11-23T09:20:27.145Z,99401.81
2022-11-23T09:22:53.258Z,99394.66
2022-11-23T09:25:19.393Z,99405.56
2022-11-23T09:27:45.547Z,99402.63
2022-11-23T09:30:11.729Z,99395.94
2022-11-23T09:32:37.893Z,99401.16
2022-11-23T09:35:04.135Z,99400.75
2022-11-23T09:37:30.301Z,99406.78
2022-11-23T09:39:56.419Z,99402.28
2022-11-23T09:42:22.601Z,99414.47
2022-11-23T09:44:48.808Z,99399.16
2022-11-23T09:47:14.912Z,99395.88
2022-11-23T09:49:41.054Z,99386.53
2022-11-23T09:52:07.203Z,99381.50
2022-11-23T09:54:33.516Z,99385.00
2022-11-23T09:57:01.949Z,99389.84
2022-11-23T09:59:28.485Z,99375.44
2022-11-23T10:01:54.674Z,99381.50
2022-11-23T10:04:20.906Z,99388.53
2022-11-23T10:06:47.074Z,99391.16
2022-11-23T10:09:13.251Z,99383.63
2022-11-23T10:11:39.393Z,99384.47
2022-11-23T10:14:05.574Z,99380.78
2022-11-23T10:16:31.765Z,99383.88
2022-11-23T10:18:57.972Z,99388.50
2022-11-23T10:21:24.201Z,99383.31
2022-11-23T10:23:50.403Z,99386.09
2022-11-23T10:26:16.574Z,99389.19
2022-11-23T10:28:42.782Z,99382.91
2022-11-23T10:31:08.956Z,99370.50
2022-11-23T10:33:35.107Z,99372.53
2022-11-23T10:36:01.284Z,99364.59
2022-11-23T10:38:27.422Z,99365.50
2022-11-23T10:40:53.572Z,99363.56
2022-11-23T10:43:19.768Z,99366.47
2022-11-23T10:45:45.924Z,99374.50
2022-11-23T10:48:12.094Z,99366.88
2022-11-23T10:50:38.298Z,99363.19
2022-11-23T10:53:04.453Z,99365.69
2022-11-23T10:55:30.624Z,99358.75
2022-11-23T10:57:56.804Z,99353.78
2022-11-23T11:00:28.812Z,99344.81
2022-11-23T11:02:56.588Z,99345.97
2022-11-23T11:05:35.464Z,99336.13
2022-11-23T11:08:08.850Z,99330.22
2022-11-23T11:10:34.977Z,99337.50
2022-11-23T11:13:01.082Z,99335.34
2022-11-23T11:15:27.250Z,99330.25
2022-11-23T11:17:53.432Z,99324.78
2022-11-23T11:20:19.610Z,99322.88
2022-11-23T11:22:47.896Z,99322.19
2022-11-23T11:25:14.265Z,99330.41
2022-11-23T11:27:40.392Z,99328.06
2022-11-23T11:30:06.577Z,99327.31
2022-11-23T11:32:32.747Z,99321.88
2022-11-23T11:34:58.870Z,99320.50
2022-11-23T11:37:25.093Z,99310.91
2022-11-23T11:39:51.218Z,99305.38
2022-11-23T11:42:17.348Z,99300.88
2022-11-23T11:44:43.511Z,99299.44
2022-11-23T11:47:09.647Z,99292.31
2022-11-23T11:49:35.797Z,99287.22
2022-11-23T11:52:01.955Z,99292.00
2022-11-23T11:54:28.173Z,99286.06
2022-11-23T11:56:54.282Z,99283.75
2022-11-23T11:59:20.420Z,99280.00
2022-11-23T12:01:46.625Z,99286.69
2022-11-23T12:04:12.731Z,99283.94
2022-11-23T12:06:38.880Z,99278.97
2022-11-23T12:09:05.036Z,99276.44
2022-11-23T12:11:31.186Z,99278.75
2022-11-23T12:13:57.319Z,99278.22
2022-11-23T12:16:23.597Z,99275.63
2022-11-23T12:18:49.805Z,99276.53
2022-11-23T12:21:16.017Z,99271.13
2022-11-23T12:23:42.205Z,99276.00
2022-11-23T12:26:08.397Z,99267.47
2022-11-23T12:28:34.528Z,99257.22
2022-11-23T12:31:00.711Z,99255.88
2022-11-23T12:33:26.828Z,99250.16
2022-11-23T12:35:52.963Z,99252.00
2022-11-23T12:38:19.128Z,99256.59
2022-11-23T12:40:45.394Z,99258.47
2022-11-23T12:43:11.543Z,99259.75
2022-11-23T12:45:37.703Z,99256.63
2022-11-23T12:48:03.912Z,99257.31
2022-11-23T12:50:30.096Z,99248.59
2022-11-23T12:52:56.314Z,99243.25
2022-11-23T12:55:22.470Z,99238.03
2022-11-23T12:57:48.609Z,99228.09
2022-11-23T13:00:14.813Z,99231.03
2022-11-23T13:02:40.982Z,99229.69
2022-11-23T13:05:07.198Z,99232.28
2022-11-23T13:07:41.015Z,99223.41
2022-11-23T13:10:10.949Z,99224.25
2022-11-23T13:12:37.126Z,99226.41
2022-11-23T13:15:03.271Z,99213.88
2022-11-23T13:17:29.416Z,99215.06
2022-11-23T13:19:55.588Z,99217.25
2022-11-23T13:22:21.771Z,99208.88
2022-11-23T13:24:47.905Z,99212.66
2022-11-23T13:27:14.066Z,99204.06
2022-11-23T13:29:40.210Z,99202.19
2022-11-23T13:32:06.428Z,99202.09
2022-11-23T13:34:32.903Z,99189.94
2022-11-23T13:37:14.663Z,99190.78
2022-11-23T13:39:40.872Z,99177.94
2022-11-23T13:42:07.013Z,99178.06
2022-11-23T13:44:33.486Z,99172.72
2022-11-23T13:46:59.840Z,99167.19
2022-11-23T13:49:25.999Z,99158.22
2022-11-23T13:51:52.218Z,99154.66
2022-11-23T13:54:18.392Z,99155.72
2022-11-23T13:56:44.538Z,99151.94
2022-11-23T13:59:10.724Z,99142.94
2022-11-23T14:01:36.897Z,99136.38
2022-11-23T14:04:03.069Z,99136.91
2022-11-23T14:06:29.191Z,99145.88
2022-11-23T14:08:55.344Z,99138.91
2022-11-23T14:11:21.537Z,99142.09
2022-11-23T14:13:47.749Z,99139.06
2022-11-23T14:16:13.969Z,99132.94
2022-11-23T14:18:40.126Z,99133.56
2022-11-23T14:21:06.266Z,99130.53
2022-11-23T14:23:32.421Z,99122.63
2022-11-23T14:25:58.606Z,99125.25
2022-11-23T14:28:24.746Z,99121.38
2022-11-23T14:30:50.866Z,99115.00
2022-11-23T14:33:17.052Z,99112.22
2022-11-23T14:35:43.227Z,99110.53
2022-11-23T14:38:09.396Z,99108.97
2022-11-23T14:40:35.543Z,99113.66
2022-11-23T14:43:01.733Z,99122.69
2022-11-23T14:45:27.967Z,99122.91
2022-11-23T14:47:54.118Z,99128.03
2022-11-23T14:50:20.331Z,99126.03
2022-11-23T14:52:46.457Z,99128.44
2022-11-23T14:55:12.610Z,99131.03
2022-11-23T14:57:38.791Z,99129.53
2022-11-23T15:00:11.441Z,99121.19
2022-11-23T15:02:38.035Z,99118.34
2022-11-23T15:05:04.268Z,99118.25
2022-11-23T15:07:30.604Z,99116.44
2022-11-23T15:09:56.777Z,99126.91
2022-11-23T15:12:22.935Z,99131.38
2022-11-23T15:14:49.085Z,99122.47
2022-11-23T15:17:15.239Z,99121.16
2022-11-23T15:19:41.363Z,99119.72
2022-11-23T15:22:07.549Z,99122.00
2022-11-23T15:24:33.791Z,99132.63
2022-11-23T15:27:00.038Z,99133.91
2022-11-23T15:29:26.160Z,99136.97
2022-11-23T15:32:14.237Z,99142.06
2022-11-23T15:34:38.462Z,99143.84
2022-11-23T15:37:04.685Z,99145.63
2022-11-23T15:39:31.301Z,99147.28
2022-11-23T15:41:57.750Z,99152.69
2022-11-23T15:44:23.943Z,99151.53
2022-11-23T15:46:50.079Z,99156.75
2022-11-23T15:49:16.259Z,99151.53
2022-11-23T15:51:42.438Z,99155.72
2022-11-23T15:54:08.617Z,99152.84
2022-11-23T15:56:34.830Z,99160.84
2022-11-23T15:59:01.003Z,99160.44
2022-11-23T16:01:27.174Z,99159.63
2022-11-23T16:03:53.314Z,99163.59
2022-11-23T16:06:19.464Z,99166.31
2022-11-23T16:08:45.616Z,99162.38
2022-11-23T16:11:11.815Z,99170.19
2022-11-23T16:13:37.937Z,99176.06
2022-11-23T16:16:04.099Z,99178.00
2022-11-23T16:18:30.232Z,99181.09
2022-11-23T16:20:56.416Z,99184.25
2022-11-23T16:23:22.554Z,99177.47
2022-11-23T16:25:48.698Z,99185.06
2022-11-23T16:28:14.864Z,99183.41
2022-11-23T16:30:41.109Z,99187.03
2022-11-23T16:33:07.319Z,99196.63
2022-11-23T16:35:33.463Z,99198.06
2022-11-23T16:37:59.663Z,99200.78
2022-11-23T16:40:25.782Z,99216.19
2022-11-23T16:42:51.964Z,99219.28
2022-11-23T16:45:18.096Z,99219.13
2022-11-23T16:47:44.278Z,99230.63
2022-11-23T16:50:10.461Z,99234.31
2022-11-23T16:52:36.656Z,99241.22
2022-11-23T16:55:02.771Z,99249.22
2022-11-23T16:57:29.027Z,99255.69
2022-11-23T16:59:55.258Z,99259.13
2022-11-23T17:02:21.427Z,99268.00
2022-11-23T17:04:47.679Z,99271.50
2022-11-23T17:07:14.042Z,99286.22
2022-11-23T17:09:40.225Z,99289.78
2022-11-23T17:12:06.379Z,99295.25
2022-11-23T17:14:32.833Z,99312.28
2022-11-23T17:17:02.210Z,99315.63
2022-11-23T17:19:28.413Z,99321.28
2022-11-23T17:21:54.533Z,99320.97
2022-11-23T17:24:20.686Z,99322.41
2022-11-23T17:26:46.843Z,99328.66
2022-11-23T17:29:13.026Z,99327.13
2022-11-23T17:31:39.186Z,99334.16
2022-11-23T17:34:05.305Z,99337.34
2022-11-23T17:36:31.442Z,99338.34
2022-11-23T17:38:57.572Z,99336.75
2022-11-23T17:44:13.844Z,99342.56
2022-11-23T17:46:40.057Z,99350.28
2022-11-23T17:49:06.269Z,99358.91
2022-11-23T17:51:32.397Z,99358.13
2022-11-23T17:53:58.575Z,99371.78
2022-11-23T17:56:24.718Z,99365.25
2022-11-23T17:58:50.850Z,99375.63
2022-11-23T18:01:17.137Z,99376.59
2022-11-23T18:03:43.407Z,99371.34
2022-11-23T18:06:09.600Z,99373.09
2022-11-23T18:08:35.920Z,99384.00
2022-11-23T18:11:03.263Z,99382.34
2022-11-23T18:13:29.579Z,99393.69
2022-11-23T18:15:56.113Z,99391.09
2022-11-23T18:18:22.365Z,99405.72
2022-11-23T18:20:48.529Z,99404.75
2022-11-23T18:23:14.790Z,99404.59
2022-11-23T18:25:41.199Z,99407.97
2022-11-23T18:28:07.392Z,99402.59
2022-11-23T18:30:33.789Z,99417.19
2022-11-23T18:33:02.326Z,99425.78
2022-11-23T18:35:28.569Z,99421.03
2022-11-23T18:37:54.701Z,99426.41
2022-11-23T18:40:20.817Z,99423.13
2022-11-23T18:42:47.028Z,99438.47
2022-11-23T18:45:13.229Z,99435.81
2022-11-23T18:47:39.373Z,99447.31
2022-11-23T18:50:06.833Z,99454.25
2022-11-23T18:52:33.143Z,99461.22
2022-11-23T18:54:59.356Z,99459.38
2022-11-23T18:57:25.552Z,99464.44
2022-11-23T18:59:59.192Z,99464.56
2022-11-23T19:02:25.565Z,99469.75
2022-11-23T19:04:51.697Z,99478.91
2022-11-23T19:07:20.913Z,99480.91
2022-11-23T19:09:51.361Z,99483.34
2022-11-23T19:12:17.534Z,99481.50
2022-11-23T19:14:43.716Z,99488.53
2022-11-23T19:17:09.904Z,99486.84
2022-11-23T19:19:36.371Z,99484.94
2022-11-23T19:22:02.999Z,99490.31
2022-11-23T19:24:29.184Z,99498.97
2022-11-23T19:26:55.353Z,99507.63
2022-11-23T19:29:24.833Z,99514.78
2022-11-23T19:31:51.202Z,99518.78
2022-11-23T19:34:17.358Z,99529.22
2022-11-23T19:36:43.518Z,99533.50
2022-11-23T19:39:09.719Z,99544.72
2022-11-23T19:41:35.899Z,99543.94
2022-11-23T19:44:02.157Z,99549.38
2022-11-23T19:46:28.369Z,99561.50
2022-11-23T19:48:54.611Z,99566.69
2022-11-23T19:51:20.783Z,99579.44
2022-11-23T19:53:46.949Z,99580.38
2022-11-23T19:56:13.133Z,99592.28
2022-11-23T19:58:39.268Z,99594.13
2022-11-23T20:01:05.414Z,99595.84
2022-11-23T20:03:31.797Z,99606.25
2022-11-23T20:06:03.962Z,99610.88
2022-11-23T20:08:30.073Z,99616.47
2022-11-23T20:10:56.296Z,99615.97
2022-11-23T20:16:13.211Z,99633.66
2022-11-23T20:18:39.390Z,99634.56
2022-11-23T20:21:06.044Z,99651.03
2022-11-23T20:23:32.260Z,99653.44
2022-11-23T20:25:58.446Z,99660.66
2022-11-23T20:28:24.589Z,99652.94
2022-11-23T20:30:50.984Z,99667.19
2022-11-23T20:33:17.163Z,99666.88
2022-11-23T20:35:43.375Z,99673.88
2022-11-23T20:38:09.503Z,99682.06
2022-11-23T20:40:35.705Z,99681.47
2022-11-23T20:43:01.930Z,99696.69
2022-11-23T20:45:28.108Z,99708.06
2022-11-23T20:47:54.347Z,99700.66
2022-11-23T20:50:20.486Z,99716.16
2022-11-23T20:52:46.613Z,99721.69
2022-11-23T20:55:12.803Z,99729.72
2022-11-23T20:57:38.981Z,99740.56
2022-11-23T21:00:05.152Z,99750.19
2022-11-23T21:02:31.438Z,99753.50
2022-11-23T21:04:57.665Z,99762.78
2022-11-23T21:07:23.986Z,99762.72
2022-11-23T21:09:50.209Z,99769.16
2022-11-23T21:12:16.457Z,99770.28
2022-11-23T21:14:42.821Z,99764.59
2022-11-23T21:17:09.028Z,99764.41
2022-11-23T21:19:35.221Z,99772.31
2022-11-23T21:22:01.412Z,99788.16
2022-11-23T21:24:27.608Z,99786.06
2022-11-23T21:26:53.824Z,99783.31
2022-11-23T21:29:20.182Z,99796.91
2022-11-23T21:31:46.422Z,99794.91
2022-11-23T21:34:12.632Z,99799.34
2022-11-23T21:36:38.919Z,99809.25
2022-11-23T21:39:05.124Z,99819.06
2022-11-23T21:41:31.340Z,99832.41
2022-11-23T21:43:57.660Z,99830.13
2022-11-23T21:46:23.915Z,99827.72
2022-11-23T21:48:50.107Z,99840.47
2022-11-23T21:51:16.275Z,99836.72
2022-11-23T21:53:42.462Z,99846.78
2022-11-23T21:56:08.621Z,99854.03
2022-11-23T21:58:34.856Z,99854.69
2022-11-23T22:01:01.088Z,99862.13
2022-11-23T22:03:27.419Z,99857.56
2022-11-23T22:05:53.538Z,99857.50
2022-11-23T22:08:35.131Z,99865.38
2022-11-23T22:11:01.319Z,99867.44
2022-11-23T22:13:34.020Z,99866.03
2022-11-23T22:16:02.837Z,99875.81
2022-11-23T22:18:28.992Z,99879.53
2022-11-23T22:20:55.144Z,99887.47
2022-11-23T22:23:21.396Z,99897.75
2022-11-23T22:25:48.350Z,99899.06
2022-11-23T22:28:14.502Z,99902.38
2022-11-23T22:30:40.643Z,99901.47
2022-11-23T22:33:06.810Z,99900.00
2022-11-23T22:35:33.008Z,99906.97
2022-11-23T22:37:59.159Z,99899.59
2022-11-23T22:40:25.289Z,99902.28
2022-11-23T22:42:51.495Z,99902.97
2022-11-23T22:45:17.620Z,99910.13
2022-11-23T22:47:43.761Z,99906.72
2022-11-23T22:50:09.937Z,99915.84
2022-11-23T22:52:36.048Z,99921.50
2022-11-23T22:55:02.181Z,99924.88
2022-11-23T22:57:28.320Z,99925.81
2022-11-23T22:59:54.543Z,99932.13
2022-11-23T23:02:20.774Z,99932.50
2022-11-23T23:04:46.961Z,99931.69
2022-11-23T23:07:13.127Z,99928.66
2022-11-23T23:09:39.272Z,99922.34
2022-11-23T23:12:05.429Z,99931.44
2022-11-23T23:14:31.929Z,99933.19
2022-11-23T23:16:58.433Z,99942.38
2022-11-23T23:19:24.655Z,99942.97
2022-11-23T23:21:50.797Z,99936.09
2022-11-23T23:24:16.968Z,99931.94
2022-11-23T23:26:43.127Z,99939.56
2022-11-23T23:29:09.248Z,99944.00
2022-11-23T23:31:35.446Z,99953.41
2022-11-23T23:34:01.666Z,99948.06
2022-11-23T23:36:27.807Z,99954.31
2022-11-23T23:38:53.938Z,99958.69
2022-11-23T23:41:20.153Z,99949.75
2022-11-23T23:43:46.335Z,99950.59
2022-11-23T23:46:12.572Z,99948.44
2022-11-23T23:48:38.738Z,99944.63
2022-11-23T23:51:04.881Z,99949.09
2022-11-23T23:53:31.006Z,99950.94
2022-11-23T23:55:57.224Z,99962.03
2022-11-23T23:58:23.479Z,99958.72
